createdAt,value
2023-05-09T00:02:39.009Z,157.63
2023-05-09T00:05:42.645Z,147.85
2023-05-09T00:08:46.192Z,143.30
2023-05-09T00:11:50.764Z,150.00
2023-05-09T00:14:54.320Z,152.80
2023-05-09T00:17:57.608Z,144.90
2023-05-09T00:21:03.142Z,144.40
2023-05-09T00:24:07.400Z,144.23
2023-05-09T00:27:12.000Z,142.05
2023-05-09T00:30:15.385Z,130.02
2023-05-09T00:33:18.775Z,129.20
2023-05-09T00:36:22.011Z,120.15
2023-05-09T00:39:25.550Z,123.90
2023-05-09T00:42:30.539Z,125.15
2023-05-09T00:45:33.797Z,128.38
2023-05-09T00:48:37.271Z,119.78
2023-05-09T00:51:42.003Z,130.20
2023-05-09T00:54:45.433Z,116.20
2023-05-09T00:57:50.293Z,123.38
2023-05-09T01:00:53.511Z,123.63
2023-05-09T01:03:57.147Z,119.00
2023-05-09T01:07:07.135Z,116.45
2023-05-09T01:10:17.215Z,87.93
2023-05-09T01:13:27.159Z,114.25
2023-05-09T01:16:36.252Z,110.57
2023-05-09T01:19:58.314Z,103.78
2023-05-09T01:23:13.051Z,109.75
2023-05-09T01:26:22.219Z,106.03
2023-05-09T01:29:38.837Z,101.10
2023-05-09T01:32:44.745Z,100.72
2023-05-09T01:35:53.344Z,101.97
2023-05-09T01:38:58.234Z,106.30
2023-05-09T01:42:04.481Z,107.32
2023-05-09T01:45:12.368Z,102.70
2023-05-09T01:48:16.705Z,108.65
2023-05-09T01:51:21.619Z,111.32
2023-05-09T01:54:26.532Z,109.95
2023-05-09T01:57:31.482Z,111.00
2023-05-09T02:00:36.813Z,114.95
2023-05-09T02:03:41.346Z,102.55
2023-05-09T02:06:45.741Z,109.20
2023-05-09T02:09:52.054Z,107.53
2023-05-09T02:12:55.345Z,112.50
2023-05-09T02:16:00.892Z,108.05
2023-05-09T02:19:04.849Z,110.05
2023-05-09T02:22:08.698Z,111.57
2023-05-09T02:25:17.205Z,111.93
2023-05-09T02:28:22.219Z,102.75
2023-05-09T02:31:29.658Z,105.78
2023-05-09T02:34:34.184Z,99.45
2023-05-09T02:37:39.323Z,98.85
2023-05-09T02:40:44.670Z,104.07
2023-05-09T02:43:47.921Z,104.03
2023-05-09T02:46:52.772Z,110.65
2023-05-09T02:49:56.937Z,103.90
2023-05-09T02:53:04.209Z,109.93
2023-05-09T02:56:08.846Z,101.28
2023-05-09T02:59:12.104Z,103.68
2023-05-09T03:02:16.965Z,111.35
2023-05-09T03:05:21.159Z,101.35
2023-05-09T03:08:24.620Z,109.07
2023-05-09T03:11:28.181Z,96.25
2023-05-09T03:14:31.387Z,106.20
2023-05-09T03:17:36.695Z,100.43
2023-05-09T03:20:39.948Z,104.95
2023-05-09T03:23:43.277Z,103.50
2023-05-09T03:26:46.615Z,104.18
2023-05-09T03:29:50.136Z,102.57
2023-05-09T03:32:56.450Z,102.65
2023-05-09T03:35:59.725Z,94.65
2023-05-09T03:39:02.931Z,93.35
2023-05-09T03:42:07.418Z,96.10
2023-05-09T03:45:11.870Z,102.25
2023-05-09T03:48:16.889Z,101.32
2023-05-09T03:51:25.588Z,101.88
2023-05-09T03:54:30.360Z,86.75
2023-05-09T03:57:35.668Z,92.72
2023-05-09T04:00:39.078Z,92.25
2023-05-09T04:03:49.214Z,100.45
2023-05-09T04:06:53.003Z,98.93
2023-05-09T04:09:57.288Z,88.32
2023-05-09T04:13:01.234Z,90.03
2023-05-09T04:16:04.991Z,98.88
2023-05-09T04:19:11.586Z,99.43
2023-05-09T04:22:14.984Z,98.05
2023-05-09T04:25:20.145Z,101.32
2023-05-09T04:28:24.282Z,102.18
2023-05-09T04:31:27.665Z,99.43
2023-05-09T04:34:33.886Z,95.15
2023-05-09T04:37:43.569Z,91.45
2023-05-09T04:40:47.358Z,82.80
2023-05-09T04:43:51.773Z,75.93
2023-05-09T04:46:56.283Z,67.40
2023-05-09T04:50:00.977Z,65.05
2023-05-09T04:53:06.868Z,58.80
2023-05-09T04:56:10.202Z,59.50
2023-05-09T04:59:14.597Z,66.32
2023-05-09T05:02:17.842Z,55.10
2023-05-09T05:05:25.371Z,50.72
2023-05-09T05:08:30.405Z,81.00
2023-05-09T05:11:33.657Z,48.45
2023-05-09T05:14:38.880Z,36.35
2023-05-09T05:17:44.952Z,31.00
2023-05-09T05:20:50.103Z,27.85
2023-05-09T05:23:53.492Z,23.48
2023-05-09T05:26:57.405Z,25.02
2023-05-09T05:30:02.499Z,22.40
2023-05-09T05:33:10.241Z,27.38
2023-05-09T05:36:16.665Z,26.05
2023-05-09T05:39:19.919Z,27.08
2023-05-09T05:42:24.074Z,27.60
2023-05-09T05:45:27.600Z,21.52
2023-05-09T05:48:32.950Z,34.60
2023-05-09T05:51:38.441Z,30.95
2023-05-09T05:54:42.948Z,30.83
2023-05-09T05:57:46.996Z,33.55
2023-05-09T06:00:53.282Z,25.65
2023-05-09T06:03:57.067Z,34.15
2023-05-09T06:07:05.008Z,35.40
2023-05-09T06:10:09.480Z,24.55
2023-05-09T06:13:12.873Z,22.25
2023-05-09T06:16:21.341Z,20.85
2023-05-09T06:19:26.545Z,25.45
2023-05-09T06:22:31.105Z,28.92
2023-05-09T06:25:34.307Z,24.60
2023-05-09T06:28:37.534Z,20.52
2023-05-09T06:31:40.923Z,24.45
2023-05-09T06:34:44.270Z,27.17
2023-05-09T06:37:49.249Z,62.72
2023-05-09T06:40:52.704Z,25.88
2023-05-09T06:43:56.112Z,19.08
2023-05-09T06:46:59.517Z,22.75
2023-05-09T06:50:02.750Z,15.85
2023-05-09T06:53:07.439Z,19.25
2023-05-09T06:56:10.756Z,21.35
2023-05-09T06:59:16.261Z,22.70
2023-05-09T07:02:19.478Z,22.90
2023-05-09T07:05:22.710Z,11.43
2023-05-09T07:08:27.356Z,8.63
2023-05-09T07:11:34.998Z,9.10
2023-05-09T07:14:38.278Z,10.45
2023-05-09T07:17:41.776Z,11.63
2023-05-09T07:20:45.068Z,10.13
2023-05-09T07:23:49.712Z,18.33
2023-05-09T07:26:53.203Z,8.20
2023-05-09T07:29:56.520Z,10.45
2023-05-09T07:32:59.936Z,10.65
2023-05-09T07:36:03.265Z,7.28
2023-05-09T07:39:08.214Z,8.90
2023-05-09T07:42:12.088Z,8.80
2023-05-09T07:45:15.808Z,8.45
2023-05-09T07:48:19.346Z,38.03
2023-05-09T07:51:22.604Z,8.50
2023-05-09T07:54:27.378Z,10.18
2023-05-09T07:57:30.633Z,51.05
2023-05-09T08:00:33.892Z,18.80
2023-05-09T08:03:37.330Z,6.78
2023-05-09T08:06:40.883Z,6.10
2023-05-09T08:09:45.579Z,5.38
2023-05-09T08:12:49.025Z,7.35
2023-05-09T08:15:52.520Z,23.88
2023-05-09T08:18:55.908Z,8.77
2023-05-09T08:21:59.204Z,7.35
2023-05-09T08:25:03.931Z,6.50
2023-05-09T08:28:07.760Z,8.65
2023-05-09T08:31:11.022Z,6.57
2023-05-09T08:34:14.326Z,6.13
2023-05-09T08:37:17.805Z,8.88
2023-05-09T08:40:23.401Z,7.25
2023-05-09T08:43:26.927Z,6.18
2023-05-09T08:46:34.401Z,4.07
2023-05-09T08:49:37.689Z,7.82
2023-05-09T08:52:41.543Z,4.22
2023-05-09T08:55:46.363Z,35.58
2023-05-09T08:58:49.717Z,18.85
2023-05-09T09:01:55.066Z,4.43
2023-05-09T09:04:58.309Z,10.05
2023-05-09T09:08:01.800Z,6.75
2023-05-09T09:11:07.432Z,4.63
2023-05-09T09:14:14.106Z,6.95
2023-05-09T09:17:20.657Z,3.60
2023-05-09T09:20:24.355Z,7.03
2023-05-09T09:23:28.450Z,8.65
2023-05-09T09:26:33.188Z,6.18
2023-05-09T09:29:38.673Z,5.80
2023-05-09T09:32:42.087Z,7.35
2023-05-09T09:35:45.383Z,8.70
2023-05-09T09:38:48.776Z,4.20
2023-05-09T09:41:53.379Z,10.05
2023-05-09T09:44:58.532Z,15.65
2023-05-09T09:48:08.173Z,9.05
2023-05-09T09:51:12.802Z,5.28
2023-05-09T09:54:16.454Z,5.20
2023-05-09T09:57:37.052Z,5.35
2023-05-09T10:00:40.280Z,5.18
2023-05-09T10:03:46.215Z,6.63
2023-05-09T10:06:56.649Z,10.25
2023-05-09T10:10:00.850Z,7.25
2023-05-09T10:13:09.423Z,6.90
2023-05-09T10:16:14.209Z,7.85
2023-05-09T10:19:20.618Z,5.82
2023-05-09T10:22:24.905Z,5.45
2023-05-09T10:25:34.487Z,6.03
2023-05-09T10:28:41.452Z,6.20
2023-05-09T10:31:46.301Z,5.05
2023-05-09T10:34:54.005Z,4.55
2023-05-09T10:37:58.394Z,8.98
2023-05-09T10:41:02.390Z,5.10
2023-05-09T10:44:07.725Z,8.98
2023-05-09T10:47:13.155Z,4.63
2023-05-09T10:50:16.587Z,5.43
2023-05-09T10:53:21.643Z,7.53
2023-05-09T10:56:26.465Z,4.07
2023-05-09T10:59:42.661Z,9.25
2023-05-09T11:03:07.889Z,8.57
2023-05-09T11:06:11.697Z,5.70
2023-05-09T11:09:27.087Z,5.72
2023-05-09T11:12:30.278Z,5.28
2023-05-09T11:15:35.061Z,5.75
2023-05-09T11:18:53.022Z,5.55
2023-05-09T11:22:03.971Z,6.53
2023-05-09T11:25:09.614Z,6.57
2023-05-09T11:28:28.072Z,5.72
2023-05-09T11:31:32.731Z,9.75
2023-05-09T11:34:36.083Z,4.60
2023-05-09T11:37:50.182Z,15.27
2023-05-09T11:40:54.824Z,9.85
2023-05-09T11:43:59.447Z,5.68
2023-05-09T11:47:05.314Z,6.10
2023-05-09T11:50:10.169Z,4.60
2023-05-09T11:53:13.380Z,6.82
2023-05-09T11:56:17.596Z,6.22
2023-05-09T11:59:20.841Z,6.20
2023-05-09T12:02:26.842Z,8.70
2023-05-09T12:05:30.746Z,4.13
2023-05-09T12:08:34.353Z,3.03
2023-05-09T12:11:38.394Z,8.57
2023-05-09T12:14:42.887Z,6.60
2023-05-09T12:17:50.561Z,4.18
2023-05-09T12:20:56.297Z,4.50
2023-05-09T12:24:00.069Z,4.18
2023-05-09T12:27:03.752Z,4.32
2023-05-09T12:30:08.566Z,4.00
2023-05-09T12:33:14.239Z,3.63
2023-05-09T12:36:17.846Z,6.50
2023-05-09T12:39:23.061Z,4.13
2023-05-09T12:42:28.616Z,3.13
2023-05-09T12:45:33.991Z,7.78
2023-05-09T12:48:39.608Z,10.00
2023-05-09T12:51:50.398Z,10.48
2023-05-09T12:54:54.691Z,9.35
2023-05-09T12:58:02.461Z,5.15
2023-05-09T13:01:07.213Z,2.92
2023-05-09T13:04:12.717Z,3.22
2023-05-09T13:07:16.192Z,16.40
2023-05-09T13:10:21.974Z,8.45
2023-05-09T13:13:27.859Z,8.27
2023-05-09T13:16:32.238Z,6.80
2023-05-09T13:19:39.408Z,5.75
2023-05-09T13:22:43.970Z,2.92
2023-05-09T13:25:47.313Z,3.92
2023-05-09T13:28:50.773Z,5.43
2023-05-09T13:31:54.161Z,5.10
2023-05-09T13:34:58.791Z,6.05
2023-05-09T13:38:02.065Z,6.85
2023-05-09T13:41:06.013Z,4.97
2023-05-09T13:44:09.253Z,3.78
2023-05-09T13:47:12.611Z,9.60
2023-05-09T13:50:17.434Z,6.43
2023-05-09T13:53:20.849Z,5.65
2023-05-09T13:56:24.149Z,7.85
2023-05-09T13:59:27.342Z,4.22
2023-05-09T14:02:30.854Z,5.65
2023-05-09T14:05:35.849Z,4.72
2023-05-09T14:08:39.785Z,4.75
2023-05-09T14:11:43.887Z,3.10
2023-05-09T14:14:47.227Z,3.75
2023-05-09T14:17:50.409Z,9.48
2023-05-09T14:21:00.161Z,3.90
2023-05-09T14:24:04.666Z,6.10
2023-05-09T14:27:07.936Z,7.00
2023-05-09T14:30:12.195Z,5.90
2023-05-09T14:33:15.582Z,13.07
2023-05-09T14:36:20.220Z,11.75
2023-05-09T14:39:23.472Z,5.25
2023-05-09T14:42:26.771Z,5.80
2023-05-09T14:45:31.388Z,5.60
2023-05-09T14:48:34.905Z,4.35
2023-05-09T14:51:39.517Z,5.53
2023-05-09T14:54:43.028Z,2.92
2023-05-09T14:57:46.714Z,4.93
2023-05-09T15:00:50.133Z,3.38
2023-05-09T15:03:53.644Z,11.60
2023-05-09T15:06:58.854Z,6.63
2023-05-09T15:10:03.420Z,8.00
2023-05-09T15:13:06.752Z,3.45
2023-05-09T15:16:10.089Z,3.88
2023-05-09T15:19:13.368Z,6.30
2023-05-09T15:22:18.080Z,4.22
2023-05-09T15:25:22.161Z,6.65
2023-05-09T15:28:25.545Z,8.50
2023-05-09T15:31:32.787Z,293.40
2023-05-09T15:34:36.878Z,21.30
2023-05-09T15:37:41.681Z,6.90
2023-05-09T15:40:45.020Z,6.72
2023-05-09T15:43:48.638Z,5.35
2023-05-09T15:46:51.909Z,8.43
2023-05-09T15:49:55.140Z,5.30
2023-05-09T15:52:59.776Z,8.27
2023-05-09T15:56:03.658Z,11.88
2023-05-09T15:59:07.266Z,5.95
2023-05-09T16:02:12.380Z,8.15
2023-05-09T16:05:15.857Z,9.07
2023-05-09T16:08:20.574Z,8.05
2023-05-09T16:11:23.842Z,5.38
2023-05-09T16:14:27.641Z,5.15
2023-05-09T16:17:31.622Z,6.40
2023-05-09T16:20:34.876Z,11.65
2023-05-09T16:23:40.455Z,4.97
2023-05-09T16:26:43.690Z,7.13
2023-05-09T16:29:47.033Z,9.40
2023-05-09T16:32:50.340Z,5.45
2023-05-09T16:35:53.864Z,8.02
2023-05-09T16:38:58.843Z,8.10
2023-05-09T16:42:02.160Z,10.20
2023-05-09T16:45:06.196Z,7.88
2023-05-09T16:48:09.713Z,6.80
2023-05-09T16:51:13.068Z,6.68
2023-05-09T16:54:17.694Z,10.00
2023-05-09T16:57:21.027Z,6.97
2023-05-09T17:00:24.614Z,7.97
2023-05-09T17:03:29.220Z,8.18
2023-05-09T17:06:34.264Z,8.45
2023-05-09T17:09:39.974Z,7.28
2023-05-09T17:12:43.799Z,6.18
2023-05-09T17:15:49.056Z,14.18
2023-05-09T17:18:52.830Z,9.40
2023-05-09T17:21:58.592Z,8.85
2023-05-09T17:25:03.325Z,7.60
2023-05-09T17:28:07.710Z,8.48
2023-05-09T17:31:11.503Z,12.38
2023-05-09T17:34:14.819Z,8.25
2023-05-09T17:37:18.168Z,6.35
2023-05-09T17:40:23.037Z,7.85
2023-05-09T17:43:28.360Z,5.32
2023-05-09T17:46:32.846Z,5.85
2023-05-09T17:49:36.412Z,9.48
2023-05-09T17:52:39.933Z,7.82
2023-05-09T17:55:45.347Z,10.88
2023-05-09T17:58:52.985Z,5.95
2023-05-09T18:01:56.686Z,9.80
2023-05-09T18:05:00.108Z,10.30
2023-05-09T18:08:03.625Z,8.18
2023-05-09T18:11:08.440Z,9.02
2023-05-09T18:14:13.169Z,13.85
2023-05-09T18:17:17.015Z,9.57
2023-05-09T18:20:21.864Z,8.18
2023-05-09T18:23:26.094Z,11.38
2023-05-09T18:26:31.063Z,16.58
2023-05-09T18:29:34.916Z,22.52
2023-05-09T18:32:38.376Z,20.13
2023-05-09T18:35:43.166Z,18.08
2023-05-09T18:38:47.854Z,33.55
2023-05-09T18:41:53.075Z,38.55
2023-05-09T18:44:56.495Z,29.08
2023-05-09T18:47:59.856Z,26.63
2023-05-09T18:51:03.201Z,21.88
2023-05-09T18:54:07.163Z,51.45
2023-05-09T18:57:12.358Z,52.30
2023-05-09T19:00:16.444Z,59.78
2023-05-09T19:03:20.960Z,34.25
2023-05-09T19:06:26.289Z,35.30
2023-05-09T19:09:31.678Z,23.60
2023-05-09T19:12:36.979Z,21.77
2023-05-09T19:15:40.911Z,26.38
2023-05-09T19:18:45.029Z,24.67
2023-05-09T19:21:50.123Z,29.90
2023-05-09T19:24:55.458Z,30.90
2023-05-09T19:28:00.642Z,33.55
2023-05-09T19:31:04.398Z,73.50
2023-05-09T19:34:07.902Z,41.67
2023-05-09T19:37:11.420Z,51.13
2023-05-09T19:40:18.748Z,58.67
2023-05-09T19:43:25.334Z,47.42
2023-05-09T19:46:31.938Z,51.58
2023-05-09T19:49:35.481Z,75.90
2023-05-09T19:52:39.058Z,96.07
2023-05-09T19:55:46.962Z,60.95
2023-05-09T19:58:52.133Z,80.43
2023-05-09T20:01:56.092Z,161.20
2023-05-09T20:05:00.435Z,143.70
2023-05-09T20:08:04.844Z,110.22
2023-05-09T20:11:08.708Z,86.15
2023-05-09T20:14:14.032Z,52.70
2023-05-09T20:17:18.165Z,36.95
2023-05-09T20:20:22.326Z,34.28
2023-05-09T20:23:26.417Z,46.90
2023-05-09T20:26:30.321Z,42.67
2023-05-09T20:29:35.122Z,38.67
2023-05-09T20:32:38.514Z,34.05
2023-05-09T20:35:43.145Z,30.85
2023-05-09T20:38:46.898Z,30.73
2023-05-09T20:41:51.259Z,26.00
2023-05-09T20:44:55.961Z,23.75
2023-05-09T20:47:59.374Z,23.75
2023-05-09T20:51:02.870Z,25.45
2023-05-09T20:54:06.566Z,28.20
2023-05-09T20:57:09.898Z,36.75
2023-05-09T21:00:15.680Z,39.33
2023-05-09T21:03:19.274Z,58.70
2023-05-09T21:06:22.624Z,76.80
2023-05-09T21:09:25.961Z,59.58
2023-05-09T21:12:30.565Z,70.72
2023-05-09T21:15:35.459Z,63.67
2023-05-09T21:18:38.637Z,60.83
2023-05-09T21:21:41.801Z,49.05
2023-05-09T21:24:45.375Z,63.10
2023-05-09T21:27:48.578Z,54.83
2023-05-09T21:30:53.988Z,45.00
2023-05-09T21:33:57.212Z,43.15
2023-05-09T21:37:00.516Z,52.67
2023-05-09T21:40:05.719Z,35.70
2023-05-09T21:43:09.097Z,47.03
2023-05-09T21:46:13.693Z,40.20
2023-05-09T21:49:17.730Z,54.17
2023-05-09T21:52:23.471Z,47.30
2023-05-09T21:55:26.858Z,42.47
2023-05-09T21:58:30.070Z,43.22
2023-05-09T22:01:34.858Z,31.40
2023-05-09T22:04:38.177Z,24.45
2023-05-09T22:07:41.554Z,23.13
2023-05-09T22:10:44.835Z,23.15
2023-05-09T22:13:47.994Z,32.17
2023-05-09T22:16:53.240Z,28.48
2023-05-09T22:19:56.603Z,25.27
2023-05-09T22:22:59.770Z,26.48
2023-05-09T22:26:03.142Z,30.85
2023-05-09T22:29:06.553Z,22.23
2023-05-09T22:32:11.485Z,26.27
2023-05-09T22:35:14.934Z,29.98
2023-05-09T22:38:18.362Z,32.50
2023-05-09T22:41:22.090Z,38.45
2023-05-09T22:44:25.421Z,72.70
2023-05-09T22:47:30.304Z,141.50
2023-05-09T22:50:33.562Z,75.43
2023-05-09T22:53:36.778Z,45.40
2023-05-09T22:56:40.237Z,32.20
2023-05-09T22:59:43.471Z,23.77
2023-05-09T23:02:48.145Z,22.42
2023-05-09T23:05:51.910Z,21.60
2023-05-09T23:08:55.504Z,15.95
2023-05-09T23:11:59.496Z,14.88
2023-05-09T23:15:02.774Z,18.70
2023-05-09T23:18:08.020Z,20.23
2023-05-09T23:21:11.294Z,15.38
2023-05-09T23:24:14.553Z,16.15
2023-05-09T23:27:17.741Z,20.27
2023-05-09T23:30:21.183Z,15.45
2023-05-09T23:33:26.009Z,13.07
2023-05-09T23:36:29.218Z,13.35
2023-05-09T23:39:33.025Z,15.73
2023-05-09T23:42:36.294Z,22.50
2023-05-09T23:45:39.595Z,14.30
2023-05-09T23:48:44.247Z,11.45
2023-05-09T23:51:48.172Z,17.58
2023-05-09T23:54:51.382Z,13.48
2023-05-09T23:57:54.579Z,13.95
